Time;durP1;ratioP1;P1;durP2;ratioP2;P2;SDS_P1;SDS_P2;PMS_P1;PMS_P2;Temp;Humidity;BMP_temperature;BMP_pressure;BME280_temperature;BME280_humidity;BME280_pressure;Samples;Min_cycle;Max_cycle;Signal;HPM_P1;HPM_P2
2020/12/18 00:00:34;;;;;;;15.70;7.70;;;8.10;94.00;;;;;;5058723;28;20032;-89
2020/12/18 00:03:00;;;;;;;12.40;7.53;;;8.10;93.90;;;;;;5058935;28;20020;-89
2020/12/18 00:05:25;;;;;;;13.90;7.25;;;8.10;94.10;;;;;;5055141;28;20024;-89
2020/12/18 00:07:51;;;;;;;20.02;9.50;;;8.10;94.00;;;;;;5058543;28;20032;-89
2020/12/18 00:10:16;;;;;;;20.23;7.90;;;8.00;94.00;;;;;;5058944;28;20028;-89
2020/12/18 00:12:42;;;;;;;22.58;9.65;;;8.10;94.10;;;;;;5056022;28;20036;-90
2020/12/18 00:15:08;;;;;;;15.68;8.07;;;8.00;94.10;;;;;;5076404;28;20043;-89
2020/12/18 00:17:34;;;;;;;19.60;9.90;;;8.00;94.10;;;;;;5050839;28;20028;-89
2020/12/18 00:19:59;;;;;;;18.75;8.65;;;8.00;94.10;;;;;;5048112;28;20032;-89
2020/12/18 00:22:26;;;;;;;20.83;9.32;;;8.00;94.20;;;;;;5081108;28;20028;-90
2020/12/18 00:24:53;;;;;;;19.45;10.07;;;8.00;94.30;;;;;;5069236;23;20048;-87
2020/12/18 00:27:19;;;;;;;24.20;9.82;;;7.90;94.30;;;;;;5051999;28;20024;-87
2020/12/18 00:29:44;;;;;;;29.05;11.50;;;7.90;94.40;;;;;;5061194;28;20028;-86
2020/12/18 00:32:10;;;;;;;21.27;9.73;;;7.90;94.40;;;;;;5060969;28;20032;-86
2020/12/18 00:34:35;;;;;;;25.20;12.18;;;7.90;94.50;;;;;;5044173;28;20020;-86
2020/12/18 00:37:01;;;;;;;24.65;11.48;;;7.90;94.60;;;;;;5077287;28;20018;-87
2020/12/18 00:39:27;;;;;;;21.20;12.13;;;7.80;94.60;;;;;;5060587;28;20866;-87
2020/12/18 00:41:53;;;;;;;22.27;11.60;;;7.80;94.60;;;;;;5060183;28;20036;-87
2020/12/18 00:44:20;;;;;;;20.13;11.05;;;7.80;94.80;;;;;;5066466;28;20028;-87
2020/12/18 00:46:46;;;;;;;24.08;10.82;;;7.70;94.90;;;;;;5056954;28;20024;-87
2020/12/18 00:49:12;;;;;;;21.25;10.63;;;7.70;94.90;;;;;;5060785;28;20054;-86
2020/12/18 00:51:38;;;;;;;20.02;10.80;;;7.70;94.90;;;;;;5058224;28;20024;-87
2020/12/18 00:54:04;;;;;;;22.90;10.63;;;7.70;94.90;;;;;;5053549;28;20035;-86
2020/12/18 00:56:29;;;;;;;17.23;10.40;;;7.70;95.00;;;;;;5040520;28;20531;-87
2020/12/18 00:58:55;;;;;;;15.38;9.70;;;7.70;95.00;;;;;;5076012;28;20031;-87
2020/12/18 01:01:21;;;;;;;19.52;9.30;;;7.70;95.00;;;;;;5044161;28;20363;-86
2020/12/18 01:03:46;;;;;;;15.98;8.88;;;7.70;95.10;;;;;;5059627;28;20115;-86
2020/12/18 01:06:13;;;;;;;22.20;10.60;;;7.70;95.00;;;;;;5056995;28;20063;-87
2020/12/18 01:08:38;;;;;;;19.08;9.82;;;7.70;94.90;;;;;;5076976;28;20048;-87
2020/12/18 01:11:05;;;;;;;17.98;10.13;;;7.70;94.90;;;;;;5060023;28;20080;-86
2020/12/18 01:13:31;;;;;;;18.98;10.20;;;7.70;95.00;;;;;;5073515;28;20509;-86
2020/12/18 01:15:57;;;;;;;20.88;9.98;;;7.70;95.00;;;;;;5076707;28;20032;-87
2020/12/18 01:18:24;;;;;;;19.85;10.05;;;7.60;95.00;;;;;;5056833;28;20032;-87
2020/12/18 01:20:51;;;;;;;17.77;9.27;;;7.60;95.10;;;;;;5056504;28;20101;-86
2020/12/18 01:23:17;;;;;;;20.92;11.38;;;7.60;95.00;;;;;;5056263;28;20036;-86
2020/12/18 01:25:43;;;;;;;18.35;9.77;;;7.50;95.00;;;;;;5059440;28;20044;-87
2020/12/18 01:28:10;;;;;;;15.82;8.65;;;7.50;95.10;;;;;;5076339;28;20366;-86
2020/12/18 01:30:35;;;;;;;20.00;9.48;;;7.50;95.20;;;;;;5043538;28;20024;-86
2020/12/18 01:33:01;;;;;;;22.45;11.30;;;7.50;95.10;;;;;;5058271;28;20092;-86
2020/12/18 01:35:27;;;;;;;17.52;9.25;;;7.50;95.10;;;;;;5056386;28;20071;-86
2020/12/18 01:37:53;;;;;;;13.43;8.43;;;7.50;95.10;;;;;;5039604;28;20032;-86
2020/12/18 01:40:19;;;;;;;17.23;9.25;;;7.50;95.20;;;;;;5075685;28;20035;-86
2020/12/18 01:42:44;;;;;;;18.30;7.97;;;7.40;95.20;;;;;;5076015;28;20424;-86
2020/12/18 01:45:10;;;;;;;23.95;9.50;;;7.40;95.40;;;;;;5076298;28;20028;-86
2020/12/18 01:47:35;;;;;;;18.23;9.57;;;7.40;95.20;;;;;;5076072;28;20473;-86
2020/12/18 01:50:02;;;;;;;14.18;8.68;;;7.40;95.40;;;;;;5075878;28;20077;-86
2020/12/18 01:52:29;;;;;;;17.10;8.95;;;7.40;95.40;;;;;;5075457;28;20123;-86
2020/12/18 01:54:59;;;;;;;21.13;9.20;;;7.40;95.50;;;;;;5059437;28;20036;-86
2020/12/18 01:57:25;;;;;;;22.17;9.70;;;7.50;95.20;;;;;;5075595;28;20019;-87
2020/12/18 01:59:53;;;;;;;20.02;8.73;;;7.50;95.30;;;;;;5063369;28;20029;-86
2020/12/18 02:02:19;;;;;;;21.45;9.27;;;7.50;95.30;;;;;;5057710;28;20032;-87
2020/12/18 02:04:45;;;;;;;15.35;8.77;;;7.40;95.40;;;;;;5058979;28;20089;-86
2020/12/18 02:07:12;;;;;;;20.75;8.07;;;7.50;95.40;;;;;;5038970;28;20082;-86
2020/12/18 02:09:39;;;;;;;16.58;8.35;;;7.50;95.30;;;;;;5057972;28;20032;-86
2020/12/18 02:12:05;;;;;;;20.05;8.43;;;7.50;95.30;;;;;;5075554;28;20022;-86
2020/12/18 02:14:31;;;;;;;13.43;7.93;;;7.50;95.20;;;;;;5042489;28;20024;-87
2020/12/18 02:16:57;;;;;;;15.38;7.68;;;7.60;95.20;;;;;;5075537;28;20091;-86
2020/12/18 02:19:27;;;;;;;20.98;8.82;;;7.60;95.10;;;;;;5075399;28;20077;-86
2020/12/18 02:21:52;;;;;;;16.48;7.88;;;7.60;95.10;;;;;;5075251;28;20028;-86
2020/12/18 02:24:26;;;;;;;21.30;8.35;;;7.60;95.10;;;;;;5081428;28;20044;-87
2020/12/18 02:26:55;;;;;;;18.92;8.43;;;7.60;95.10;;;;;;5062349;28;20469;-87
2020/12/18 02:29:21;;;;;;;16.48;8.02;;;7.60;95.00;;;;;;5055367;28;20025;-87
2020/12/18 02:31:49;;;;;;;21.50;8.15;;;7.50;95.00;;;;;;5057953;28;20020;-87
2020/12/18 02:34:26;;;;;;;18.10;7.90;;;7.60;95.10;;;;;;5058366;28;20361;-87
2020/12/18 02:36:51;;;;;;;15.15;7.47;;;7.50;95.10;;;;;;5075095;28;20026;-86
2020/12/18 02:39:17;;;;;;;18.10;7.80;;;7.50;95.10;;;;;;5038655;28;20119;-87
2020/12/18 02:41:43;;;;;;;19.98;8.25;;;7.60;95.10;;;;;;5069634;28;20453;-86
2020/12/18 02:44:09;;;;;;;19.55;8.25;;;7.60;95.10;;;;;;5058582;28;20028;-87
2020/12/18 02:46:35;;;;;;;20.20;7.72;;;7.50;95.10;;;;;;5058416;28;20032;-87
2020/12/18 02:49:01;;;;;;;14.95;7.65;;;7.50;95.10;;;;;;5093341;28;20045;-87
2020/12/18 02:51:27;;;;;;;18.92;8.68;;;7.50;95.00;;;;;;5075018;28;20016;-87
2020/12/18 02:53:53;;;;;;;21.65;8.32;;;7.50;95.00;;;;;;5054752;28;20048;-87
2020/12/18 02:56:26;;;;;;;15.25;7.28;;;7.40;95.10;;;;;;5041717;28;20073;-87
2020/12/18 02:58:51;;;;;;;18.08;8.18;;;7.40;95.10;;;;;;5058011;28;20100;-87
2020/12/18 03:01:19;;;;;;;14.40;7.53;;;7.40;95.10;;;;;;5058416;28;20061;-87
2020/12/18 03:03:44;;;;;;;15.43;7.88;;;7.40;95.20;;;;;;5073851;28;20558;-87
2020/12/18 03:06:10;;;;;;;14.48;7.20;;;7.40;95.10;;;;;;5057975;28;20059;-87
2020/12/18 03:08:36;;;;;;;15.25;7.93;;;7.40;95.10;;;;;;5058189;28;20501;-87
2020/12/18 03:11:01;;;;;;;17.55;8.27;;;7.40;95.10;;;;;;5041232;28;20466;-86
2020/12/18 03:13:27;;;;;;;13.20;7.60;;;7.40;95.10;;;;;;5058279;28;20031;-87
2020/12/18 03:15:53;;;;;;;17.67;7.68;;;7.40;95.10;;;;;;5057999;28;20032;-87
2020/12/18 03:18:18;;;;;;;16.13;7.40;;;7.50;95.10;;;;;;5074582;28;20105;-87
2020/12/18 03:20:44;;;;;;;22.25;7.43;;;7.40;95.30;;;;;;5074617;28;20044;-86
2020/12/18 03:23:10;;;;;;;19.13;8.07;;;7.40;95.20;;;;;;5058005;28;20028;-86
2020/12/18 03:25:35;;;;;;;17.88;7.63;;;7.40;95.10;;;;;;5041047;28;20051;-87
2020/12/18 03:28:01;;;;;;;18.67;6.75;;;7.30;95.10;;;;;;5037834;28;20029;-87
2020/12/18 03:30:27;;;;;;;14.75;6.60;;;7.40;95.20;;;;;;5071229;28;20039;-87
2020/12/18 03:32:53;;;;;;;21.60;7.57;;;7.40;95.10;;;;;;5074334;28;20142;-87
2020/12/18 03:35:19;;;;;;;18.83;7.93;;;7.40;95.10;;;;;;5057916;28;20035;-87
2020/12/18 03:37:45;;;;;;;16.33;7.72;;;7.30;95.10;;;;;;5074470;28;20024;-88
2020/12/18 03:40:11;;;;;;;19.67;7.05;;;7.40;95.20;;;;;;5057227;28;20077;-87
2020/12/18 03:42:36;;;;;;;14.30;6.80;;;7.30;95.20;;;;;;5041637;28;20370;-87
2020/12/18 03:45:02;;;;;;;13.70;6.38;;;7.30;95.20;;;;;;5057722;28;20055;-87
2020/12/18 03:47:28;;;;;;;14.88;7.25;;;7.30;95.20;;;;;;5077453;28;20588;-87
2020/12/18 03:49:53;;;;;;;18.05;7.70;;;7.30;95.10;;;;;;5041111;28;20119;-87
2020/12/18 03:52:19;;;;;;;13.52;7.10;;;7.30;95.20;;;;;;5057984;28;20035;-87
2020/12/18 03:54:45;;;;;;;19.65;7.50;;;7.30;95.30;;;;;;5057719;28;20075;-87
2020/12/18 03:57:10;;;;;;;15.68;6.97;;;7.30;95.30;;;;;;5054350;28;20029;-87
2020/12/18 03:59:36;;;;;;;17.20;7.18;;;7.20;95.30;;;;;;5087874;28;20036;-87
2020/12/18 04:02:01;;;;;;;15.23;7.47;;;7.20;95.40;;;;;;5057393;28;20032;-87
2020/12/18 04:04:27;;;;;;;17.60;7.13;;;7.20;95.30;;;;;;5074211;28;20020;-87
2020/12/18 04:06:53;;;;;;;18.20;7.03;;;7.20;95.40;;;;;;5037619;28;20059;-87
2020/12/18 04:09:22;;;;;;;17.05;6.97;;;7.20;95.50;;;;;;5050787;28;20028;-87
2020/12/18 04:11:47;;;;;;;18.08;7.20;;;7.20;95.40;;;;;;5074885;28;20028;-87
2020/12/18 04:14:13;;;;;;;16.48;7.35;;;7.20;95.70;;;;;;5058326;28;20040;-88
2020/12/18 04:16:39;;;;;;;16.92;7.28;;;7.20;95.50;;;;;;5041495;28;20036;-87
2020/12/18 04:19:05;;;;;;;13.82;6.38;;;7.20;95.50;;;;;;5049946;28;20115;-87
2020/12/18 04:21:31;;;;;;;11.50;6.32;;;7.20;95.50;;;;;;5046080;28;20035;-87
2020/12/18 04:23:57;;;;;;;13.20;6.75;;;7.20;95.50;;;;;;5041318;28;20066;-87
2020/12/18 04:26:22;;;;;;;13.95;6.03;;;7.20;95.30;;;;;;5053938;28;20048;-88
2020/12/18 04:28:48;;;;;;;18.73;7.40;;;7.20;95.40;;;;;;5061059;28;20485;-88
2020/12/18 04:31:14;;;;;;;22.30;9.00;;;7.20;95.40;;;;;;5092790;28;20109;-87
2020/12/18 04:33:39;;;;;;;20.50;7.35;;;7.20;95.50;;;;;;5044227;28;20424;-87
2020/12/18 04:36:05;;;;;;;13.35;6.47;;;7.20;95.60;;;;;;5040796;28;20032;-87
2020/12/18 04:38:31;;;;;;;12.77;6.15;;;7.20;95.50;;;;;;5067593;28;20377;-88
2020/12/18 04:40:56;;;;;;;17.58;6.90;;;7.20;95.50;;;;;;5077506;28;20012;-87
2020/12/18 04:43:22;;;;;;;16.08;7.30;;;7.20;95.40;;;;;;5073806;28;20147;-87
2020/12/18 04:45:48;;;;;;;14.95;7.45;;;7.20;95.30;;;;;;5074027;28;20495;-87
2020/12/18 04:48:17;;;;;;;17.08;6.90;;;7.20;95.30;;;;;;5074002;28;20040;-88
2020/12/18 04:50:46;;;;;;;21.15;7.22;;;7.10;95.30;;;;;;5077058;28;20020;-88
2020/12/18 04:53:12;;;;;;;15.02;6.85;;;7.10;95.40;;;;;;5065425;28;20082;-87
2020/12/18 04:55:45;;;;;;;17.23;6.93;;;7.10;95.70;;;;;;5054937;28;20440;-87
2020/12/18 04:58:15;;;;;;;15.77;6.95;;;7.10;95.40;;;;;;5068113;28;20107;-88
2020/12/18 05:00:43;;;;;;;17.02;8.02;;;7.10;95.30;;;;;;5044955;28;20043;-88
2020/12/18 05:03:10;;;;;;;16.92;6.60;;;7.10;95.30;;;;;;5077497;28;20032;-87
2020/12/18 05:05:35;;;;;;;12.65;6.82;;;7.10;95.20;;;;;;5043745;28;20032;-88
2020/12/18 05:08:01;;;;;;;16.55;6.72;;;7.10;95.30;;;;;;5043546;28;20491;-87
2020/12/18 05:10:27;;;;;;;11.20;5.82;;;7.10;95.20;;;;;;5043788;28;20042;-87
2020/12/18 05:12:52;;;;;;;24.25;7.18;;;7.10;95.10;;;;;;5054698;28;20066;-86
2020/12/18 05:15:18;;;;;;;15.20;6.25;;;7.20;95.00;;;;;;5048014;28;20486;-88
2020/12/18 05:17:44;;;;;;;13.90;6.00;;;7.20;94.80;;;;;;5073649;28;20024;-86
2020/12/18 05:20:10;;;;;;;12.57;6.10;;;7.20;94.70;;;;;;5059897;28;20032;-87
2020/12/18 05:22:37;;;;;;;14.07;6.05;;;7.20;94.70;;;;;;5059791;28;20028;-87
2020/12/18 05:25:03;;;;;;;13.07;5.55;;;7.20;94.60;;;;;;5056653;28;20060;-87
2020/12/18 05:27:30;;;;;;;16.13;6.65;;;7.20;94.40;;;;;;5086102;28;20121;-86
2020/12/18 05:30:04;;;;;;;14.93;6.50;;;7.20;94.30;;;;;;5059446;28;20024;-87
2020/12/18 05:32:36;;;;;;;12.05;6.10;;;7.20;94.20;;;;;;5094690;28;20322;-86
2020/12/18 05:35:01;;;;;;;;;;;7.20;94.30;;;;;;5071105;28;20027;-87
2020/12/18 05:37:38;;;;;;;15.15;6.38;;;7.20;94.30;;;;;;5051284;28;19991;-88
2020/12/18 05:40:07;;;;;;;15.07;6.03;;;7.20;94.40;;;;;;5093192;28;20029;-86
2020/12/18 05:42:48;;;;;;;11.00;6.40;;;7.20;94.50;;;;;;5072883;28;20020;-87
2020/12/18 05:45:17;;;;;;;15.75;6.40;;;7.20;94.60;;;;;;5024174;28;20455;-87
2020/12/18 05:47:58;;;;;;;18.45;6.15;;;7.20;94.60;;;;;;5050563;28;20073;-88
2020/12/18 05:50:28;;;;;;;;;;;7.10;94.70;;;;;;5072822;28;20028;-86
2020/12/18 05:53:04;;;;;;;18.30;6.25;;;7.10;94.90;;;;;;5076145;28;19908;-86
2020/12/18 05:55:37;;;;;;;10.07;5.53;;;7.10;95.20;;;;;;5093877;28;20024;-87
2020/12/18 05:58:03;;;;;;;11.60;5.13;;;7.10;95.10;;;;;;5075966;28;20036;-88
2020/12/18 06:00:29;;;;;;;17.10;5.10;;;7.10;95.20;;;;;;5055726;28;20047;-88
2020/12/18 06:03:02;;;;;;;10.43;5.20;;;7.10;95.60;;;;;;5058976;28;20081;-87
2020/12/18 06:05:28;;;;;;;14.15;5.68;;;7.10;95.50;;;;;;5075701;28;20020;-86
2020/12/18 06:07:55;;;;;;;13.00;5.10;;;7.10;95.50;;;;;;5059118;28;20073;-86
2020/12/18 06:10:22;;;;;;;13.73;5.43;;;7.10;95.50;;;;;;5075455;28;20099;-87
2020/12/18 06:12:49;;;;;;;13.43;5.45;;;7.10;95.60;;;;;;5075703;28;20024;-87
2020/12/18 06:15:18;;;;;;;16.25;5.95;;;7.10;95.60;;;;;;5055979;28;20028;-87
2020/12/18 06:17:48;;;;;;;11.32;5.10;;;7.20;95.60;;;;;;5041894;28;20520;-87
2020/12/18 06:20:15;;;;;;;13.48;6.00;;;7.20;95.80;;;;;;5055486;28;20378;-87
2020/12/18 06:22:57;;;;;;;11.80;5.72;;;7.20;95.70;;;;;;5059884;28;20016;-86
2020/12/18 06:25:23;;;;;;;13.85;4.50;;;7.20;95.70;;;;;;5084575;22;20056;-87
2020/12/18 06:28:03;;;;;;;13.65;4.63;;;7.30;95.60;;;;;;5061374;28;20479;-88
2020/12/18 06:30:29;;;;;;;16.00;4.65;;;7.30;95.60;;;;;;5058105;28;20069;-87
2020/12/18 06:32:56;;;;;;;16.80;5.07;;;7.30;95.70;;;;;;5058347;28;20028;-89
2020/12/18 06:35:26;;;;;;;11.93;4.80;;;7.30;95.60;;;;;;5057903;28;20123;-87
2020/12/18 06:37:52;;;;;;;14.18;4.35;;;7.30;95.70;;;;;;5058040;28;20036;-87
2020/12/18 06:40:32;;;;;;;10.77;4.28;;;7.40;95.70;;;;;;5058602;28;20025;-87
2020/12/18 06:42:59;;;;;;;13.00;4.30;;;7.40;95.60;;;;;;5057997;28;20036;-87
2020/12/18 06:45:25;;;;;;;21.10;6.38;;;7.40;95.60;;;;;;5074182;28;20031;-87
2020/12/18 06:47:52;;;;;;;12.93;4.03;;;7.50;95.60;;;;;;5057775;28;20025;-87
2020/12/18 06:50:19;;;;;;;10.25;4.00;;;7.50;95.60;;;;;;5040819;28;20097;-88
2020/12/18 06:52:56;;;;;;;13.10;4.28;;;7.50;95.70;;;;;;5057622;28;20106;-88
2020/12/18 06:55:30;;;;;;;17.52;5.38;;;7.50;95.60;;;;;;5074811;28;20024;-88
2020/12/18 06:58:23;;;;;;;8.85;3.83;;;7.50;95.60;;;;;;5057590;28;20039;-88
2020/12/18 07:00:54;;;;;;;14.13;4.10;;;7.50;95.50;;;;;;5074194;28;20134;-88
2020/12/18 07:03:37;;;;;;;12.45;4.10;;;7.50;95.60;;;;;;5073759;28;20082;-88
2020/12/18 07:06:08;;;;;;;11.10;4.05;;;7.50;95.60;;;;;;5057434;28;20036;-88
2020/12/18 07:08:36;;;;;;;8.82;3.83;;;7.60;95.60;;;;;;5073768;28;20024;-88
2020/12/18 07:11:13;;;;;;;15.95;4.25;;;7.60;95.60;;;;;;5074028;28;20016;-87
2020/12/18 07:13:51;;;;;;;11.75;3.88;;;7.60;95.60;;;;;;5073652;28;20028;-87
2020/12/18 07:16:26;;;;;;;8.80;4.03;;;7.70;95.60;;;;;;5057735;28;20039;-87
2020/12/18 07:18:55;;;;;;;10.27;3.80;;;7.70;95.40;;;;;;5057465;28;20036;-87
2020/12/18 07:21:21;;;;;;;12.13;3.83;;;7.70;95.60;;;;;;5057491;28;20024;-87
2020/12/18 07:23:48;;;;;;;10.45;4.18;;;7.70;95.50;;;;;;5043886;28;20354;-88
2020/12/18 07:26:15;;;;;;;11.57;4.65;;;7.70;95.50;;;;;;5076757;28;20080;-87
2020/12/18 07:28:42;;;;;;;15.73;3.92;;;7.70;95.40;;;;;;5076656;28;20107;-88
2020/12/18 07:31:22;;;;;;;10.50;4.35;;;7.80;95.40;;;;;;5076767;28;20081;-87
2020/12/18 07:33:52;;;;;;;10.85;3.70;;;7.80;95.40;;;;;;5077284;28;20028;-87
2020/12/18 07:36:18;;;;;;;10.45;4.05;;;7.80;95.30;;;;;;5076088;28;20035;-87
2020/12/18 07:38:44;;;;;;;11.27;4.00;;;7.80;95.30;;;;;;5075678;28;20032;-87
2020/12/18 07:41:14;;;;;;;10.57;3.28;;;7.80;95.20;;;;;;5058935;28;20115;-87
2020/12/18 07:43:42;;;;;;;11.30;3.70;;;7.90;95.20;;;;;;5061543;28;20032;-87
2020/12/18 07:46:10;;;;;;;13.50;3.83;;;7.90;95.10;;;;;;5049517;28;20016;-87
2020/12/18 07:48:38;;;;;;;9.98;3.30;;;7.90;95.00;;;;;;5059787;28;20150;-86
2020/12/18 07:51:16;;;;;;;8.90;4.25;;;7.90;95.00;;;;;;5066417;28;20026;-87
2020/12/18 07:53:42;;;;;;;9.20;3.92;;;7.90;94.90;;;;;;5064281;28;20440;-87
2020/12/18 07:56:10;;;;;;;12.30;3.80;;;7.90;95.00;;;;;;5062185;28;20028;-87
2020/12/18 07:58:51;;;;;;;11.48;3.85;;;7.90;95.00;;;;;;5079179;28;20024;-87
2020/12/18 08:01:23;;;;;;;13.50;4.05;;;7.90;95.00;;;;;;5079550;28;20544;-87
2020/12/18 08:03:51;;;;;;;10.38;3.33;;;7.90;94.90;;;;;;5079199;28;20027;-87
2020/12/18 08:06:19;;;;;;;9.70;4.22;;;7.90;95.00;;;;;;5079078;28;20020;-87
2020/12/18 08:08:53;;;;;;;9.77;3.45;;;7.90;94.90;;;;;;5078990;28;20028;-86
2020/12/18 08:11:19;;;;;;;12.88;4.30;;;7.90;94.90;;;;;;5079049;28;20021;-88
2020/12/18 08:13:46;;;;;;;11.00;3.65;;;7.90;95.10;;;;;;5077391;28;20024;-87
2020/12/18 08:16:20;;;;;;;14.93;4.47;;;7.90;95.00;;;;;;5068650;28;20031;-86
2020/12/18 08:18:48;;;;;;;10.80;4.20;;;7.90;95.00;;;;;;5077374;28;20031;-87
2020/12/18 08:21:14;;;;;;;10.93;4.43;;;7.90;95.20;;;;;;5078823;28;20020;-88
2020/12/18 08:23:45;;;;;;;11.52;4.60;;;7.90;94.90;;;;;;5078916;28;20016;-87
2020/12/18 08:26:13;;;;;;;10.63;4.10;;;8.00;95.00;;;;;;5079394;28;20393;-87
2020/12/18 08:28:40;;;;;;;12.90;4.55;;;8.00;94.90;;;;;;5078757;28;20022;-87
2020/12/18 08:31:08;;;;;;;9.90;4.07;;;8.00;94.90;;;;;;5078600;28;20028;-87
2020/12/18 08:33:46;;;;;;;9.50;4.38;;;8.00;94.90;;;;;;5062141;28;20024;-87
2020/12/18 08:36:14;;;;;;;12.98;4.38;;;8.00;94.80;;;;;;5063349;28;20542;-87
2020/12/18 08:38:39;;;;;;;12.20;4.05;;;8.00;94.90;;;;;;5078596;28;20024;-86
2020/12/18 08:41:05;;;;;;;9.57;4.20;;;8.10;94.90;;;;;;5078553;28;20028;-87
2020/12/18 08:43:31;;;;;;;13.20;4.35;;;8.10;94.90;;;;;;5061893;28;20503;-87
2020/12/18 08:45:57;;;;;;;12.07;4.72;;;8.20;94.90;;;;;;5078766;28;20403;-87
2020/12/18 08:48:26;;;;;;;9.80;4.00;;;8.20;94.90;;;;;;5058628;28;20021;-88
2020/12/18 08:51:02;;;;;;;14.88;6.10;;;8.20;94.90;;;;;;5062318;28;20413;-87
2020/12/18 08:53:34;;;;;;;11.52;4.43;;;8.20;94.90;;;;;;5058445;28;20060;-87
2020/12/18 08:56:06;;;;;;;9.25;5.57;;;8.30;95.20;;;;;;5077574;28;20016;-86
2020/12/18 08:58:33;;;;;;;15.13;4.95;;;8.30;94.80;;;;;;5069098;28;20118;-86
2020/12/18 09:01:00;;;;;;;12.20;5.22;;;8.30;94.80;;;;;;5064713;28;20020;-86
2020/12/18 09:03:26;;;;;;;12.05;5.20;;;8.40;94.70;;;;;;5092316;28;20028;-85
2020/12/18 09:05:52;;;;;;;10.25;4.80;;;8.30;94.80;;;;;;5074425;28;20153;-86
2020/12/18 09:08:21;;;;;;;11.95;6.20;;;8.30;94.70;;;;;;5071618;28;20066;-86
2020/12/18 09:10:59;;;;;;;11.70;5.15;;;8.40;94.70;;;;;;5070864;28;20143;-85
2020/12/18 09:13:29;;;;;;;13.20;5.53;;;8.40;94.80;;;;;;5077780;28;20070;-86
2020/12/18 09:16:01;;;;;;;10.07;5.73;;;8.40;94.80;;;;;;5095771;28;20392;-86
2020/12/18 09:18:35;;;;;;;13.82;5.93;;;8.40;94.80;;;;;;5076521;28;20067;-86
2020/12/18 09:21:15;;;;;;;14.82;6.50;;;8.40;94.80;;;;;;5076079;28;20090;-87
2020/12/18 09:23:42;;;;;;;15.85;6.03;;;8.50;94.80;;;;;;5076476;28;20028;-86
2020/12/18 09:26:08;;;;;;;14.77;6.07;;;8.50;94.70;;;;;;5075605;28;20059;-86
2020/12/18 09:28:38;;;;;;;17.30;6.57;;;8.50;94.70;;;;;;5040291;28;20497;-86
2020/12/18 09:31:06;;;;;;;11.80;5.40;;;8.60;94.70;;;;;;5077416;28;20085;-86
2020/12/18 09:33:35;;;;;;;11.23;5.28;;;8.60;94.60;;;;;;5058656;28;20029;-87
2020/12/18 09:36:11;;;;;;;11.77;5.55;;;8.60;94.60;;;;;;5076337;28;20024;-86
2020/12/18 09:38:45;;;;;;;12.20;5.00;;;8.60;94.60;;;;;;5075303;28;20024;-87
2020/12/18 09:41:13;;;;;;;13.90;5.80;;;8.60;94.70;;;;;;5078193;28;20023;-88
2020/12/18 09:43:39;;;;;;;15.93;6.30;;;8.60;94.60;;;;;;5077669;28;20020;-87
2020/12/18 09:46:11;;;;;;;11.63;5.47;;;8.60;94.70;;;;;;5061684;28;20031;-87
2020/12/18 09:48:40;;;;;;;15.95;5.10;;;8.60;95.00;;;;;;5061673;28;20078;-86
2020/12/18 09:51:06;;;;;;;15.38;4.80;;;8.60;94.70;;;;;;5077562;28;20012;-86
2020/12/18 09:53:32;;;;;;;13.35;4.90;;;8.70;94.70;;;;;;5078029;28;20111;-87
2020/12/18 09:55:58;;;;;;;13.05;4.90;;;8.70;94.80;;;;;;5077286;28;20063;-86
2020/12/18 09:58:24;;;;;;;13.68;5.32;;;8.70;94.80;;;;;;5061742;28;20114;-86
2020/12/18 10:00:50;;;;;;;10.82;4.70;;;8.80;94.80;;;;;;5063941;28;20036;-86
2020/12/18 10:03:15;;;;;;;11.43;4.70;;;8.80;94.70;;;;;;5080494;28;20034;-87
2020/12/18 10:05:44;;;;;;;13.43;5.15;;;8.90;94.60;;;;;;5063947;28;20019;-87
2020/12/18 10:08:09;;;;;;;12.52;4.97;;;8.90;94.60;;;;;;5097243;28;20023;-87
2020/12/18 10:10:35;;;;;;;9.68;4.80;;;8.90;94.40;;;;;;5063791;28;20115;-87
2020/12/18 10:13:01;;;;;;;10.38;4.60;;;8.90;94.40;;;;;;5115090;28;20115;-87
2020/12/18 10:15:27;;;;;;;13.10;4.68;;;9.00;94.40;;;;;;5097716;28;20035;-86
2020/12/18 10:17:52;;;;;;;13.15;5.60;;;9.00;94.40;;;;;;5080250;28;20545;-86
2020/12/18 10:20:19;;;;;;;10.43;4.95;;;9.00;94.40;;;;;;5080236;28;20031;-86
2020/12/18 10:23:03;;;;;;;10.60;4.75;;;9.00;94.20;;;;;;5063444;28;20031;-86
2020/12/18 10:25:29;;;;;;;16.40;4.43;;;9.00;94.20;;;;;;5078881;28;20044;-86
2020/12/18 10:27:57;;;;;;;11.63;4.93;;;9.10;94.20;;;;;;5037377;28;20096;-86
2020/12/18 10:30:23;;;;;;;10.73;4.28;;;9.10;94.00;;;;;;5048604;28;20021;-86
2020/12/18 10:32:50;;;;;;;10.55;4.18;;;9.20;94.20;;;;;;5056373;28;20025;-85
2020/12/18 10:35:17;;;;;;;10.43;3.90;;;9.20;94.10;;;;;;5056137;28;20036;-86
2020/12/18 10:37:45;;;;;;;7.93;4.07;;;9.30;94.00;;;;;;5075931;28;20020;-86
2020/12/18 10:40:12;;;;;;;14.18;5.00;;;9.30;93.70;;;;;;5039820;28;20032;-86
2020/12/18 10:42:37;;;;;;;9.98;4.18;;;9.30;93.60;;;;;;5059565;28;20481;-86
2020/12/18 10:45:03;;;;;;;11.32;4.28;;;9.40;93.60;;;;;;5055607;28;20027;-86
2020/12/18 10:47:28;;;;;;;10.23;4.07;;;9.40;93.50;;;;;;5055994;28;20127;-85
2020/12/18 10:49:54;;;;;;;9.93;4.05;;;9.40;93.80;;;;;;5055618;28;20027;-86
2020/12/18 10:52:38;;;;;;;12.30;3.50;;;9.50;93.40;;;;;;5055597;28;20024;-86
2020/12/18 10:55:05;;;;;;;12.88;3.90;;;9.50;93.30;;;;;;5090596;28;20489;-86
2020/12/18 10:57:31;;;;;;;9.80;4.05;;;9.50;93.40;;;;;;5093493;28;20052;-86
2020/12/18 11:03:19;;;;;;;11.35;3.92;;;9.70;93.30;;;;;;5090112;28;20136;-86
2020/12/18 11:05:45;;;;;;;9.60;3.50;;;9.80;93.00;;;;;;5075681;28;20517;-86
2020/12/18 11:08:11;;;;;;;10.23;4.10;;;9.80;92.70;;;;;;5038830;28;20025;-86
2020/12/18 11:10:36;;;;;;;11.55;4.50;;;9.90;92.90;;;;;;5039333;28;20043;-86
2020/12/18 11:13:02;;;;;;;10.15;3.80;;;9.90;92.90;;;;;;5049558;28;20029;-86
2020/12/18 11:22:16;;;;;;;9.00;3.50;;;10.10;92.20;;;;;;5023961;28;20079;-86
2020/12/18 11:24:43;;;;;;;10.45;3.63;;;10.20;92.50;;;;;;5052718;28;20080;-86
2020/12/18 11:27:11;;;;;;;9.48;3.40;;;10.20;92.30;;;;;;5098180;28;20036;-86
2020/12/18 11:29:36;;;;;;;11.70;3.83;;;10.30;92.30;;;;;;5103491;28;20028;-86
2020/12/18 11:32:02;;;;;;;9.75;3.17;;;10.40;92.00;;;;;;5067061;28;20028;-86
2020/12/18 11:34:28;;;;;;;8.30;3.33;;;10.40;91.90;;;;;;5080059;28;20028;-86
2020/12/18 11:36:54;;;;;;;9.75;3.53;;;10.50;91.80;;;;;;5096202;28;20100;-86
2020/12/18 11:39:21;;;;;;;7.55;3.50;;;10.50;91.80;;;;;;5077148;28;20043;-86
2020/12/18 11:41:48;;;;;;;13.75;3.78;;;10.60;92.20;;;;;;5061428;28;20032;-86
2020/12/18 11:44:22;;;;;;;9.95;3.33;;;10.70;91.50;;;;;;5057540;28;20381;-85
2020/12/18 11:46:50;;;;;;;9.07;3.45;;;10.70;91.40;;;;;;5078482;28;20040;-86
2020/12/18 11:49:38;;;;;;;11.18;3.42;;;10.80;91.30;;;;;;5081303;28;20058;-86
2020/12/18 11:52:04;;;;;;;10.63;3.22;;;10.80;91.10;;;;;;5099713;28;20027;-87
2020/12/18 11:54:30;;;;;;;12.85;4.05;;;10.80;91.00;;;;;;5075313;28;20032;-87
2020/12/18 11:57:01;;;;;;;8.93;3.40;;;10.90;91.20;;;;;;5063222;28;20081;-86
2020/12/18 11:59:27;;;;;;;13.45;3.45;;;11.00;91.20;;;;;;5060332;28;20439;-86
2020/12/18 12:01:53;;;;;;;9.98;3.28;;;11.00;91.00;;;;;;5060030;28;20043;-87
2020/12/18 12:04:18;;;;;;;9.82;3.50;;;11.00;90.80;;;;;;5046128;28;20020;-87
2020/12/18 12:06:44;;;;;;;9.73;3.50;;;11.10;90.80;;;;;;5076660;28;20038;-87
2020/12/18 12:09:10;;;;;;;12.52;3.60;;;11.10;90.90;;;;;;5046407;28;20024;-87
2020/12/18 12:11:55;;;;;;;9.60;3.85;;;11.20;90.40;;;;;;5038049;28;20074;-88
2020/12/18 12:14:20;;;;;;;9.70;3.15;;;11.20;90.40;;;;;;5079909;28;20105;-87
2020/12/18 12:16:46;;;;;;;8.63;3.08;;;11.20;90.30;;;;;;5066248;28;20062;-87
2020/12/18 12:19:12;;;;;;;7.20;3.33;;;11.30;90.50;;;;;;5079500;28;20016;-87
2020/12/18 12:21:39;;;;;;;10.52;2.92;;;11.40;90.30;;;;;;5062518;28;20040;-87
2020/12/18 12:24:05;;;;;;;10.05;3.60;;;11.40;90.30;;;;;;5086290;23;20400;-88
2020/12/18 12:26:31;;;;;;;7.85;2.85;;;11.50;90.00;;;;;;5058941;28;20029;-88
2020/12/18 12:32:08;;;;;;;9.45;3.03;;;11.60;89.40;;;;;;5054988;28;20044;-88
2020/12/18 12:34:45;;;;;;;7.32;2.53;;;11.70;89.40;;;;;;5035581;28;20024;-88
2020/12/18 12:37:11;;;;;;;7.82;3.30;;;11.70;89.00;;;;;;5057134;28;20113;-89
2020/12/18 12:39:40;;;;;;;6.90;2.42;;;11.80;88.70;;;;;;5059479;28;20032;-88
2020/12/18 12:42:12;;;;;;;7.60;2.28;;;11.90;88.80;;;;;;5054148;28;20024;-88
2020/12/18 12:44:40;;;;;;;10.38;3.25;;;11.90;88.20;;;;;;5073773;28;20025;-88
2020/12/18 12:47:06;;;;;;;6.35;2.50;;;12.00;87.80;;;;;;5055104;28;20025;-89
2020/12/18 12:49:32;;;;;;;8.50;2.35;;;12.00;87.00;;;;;;5038878;28;20043;-89
2020/12/18 12:51:58;;;;;;;6.57;2.03;;;12.10;87.00;;;;;;5040598;28;20070;-88
2020/12/18 12:54:24;;;;;;;9.82;1.98;;;12.10;87.10;;;;;;5059908;28;20381;-89
2020/12/18 12:56:50;;;;;;;8.27;2.17;;;12.20;86.60;;;;;;5049786;28;20013;-89
2020/12/18 12:59:16;;;;;;;5.10;1.92;;;12.20;86.00;;;;;;5057002;28;20562;-88
2020/12/18 13:01:42;;;;;;;8.82;1.75;;;12.20;85.80;;;;;;5037369;28;20036;-88
2020/12/18 13:04:07;;;;;;;5.35;1.98;;;12.20;86.40;;;;;;5053397;28;20025;-89